sensor_id;sensor_type;location;lat;lon;timestamp;temperature;humidity
3268;DHT22;1646;52.450;13.326;2024-01-10T00:00:10;-4.20;99.90
3268;DHT22;1646;52.450;13.326;2024-01-10T00:05:08;-4.20;99.90
3268;DHT22;1646;52.450;13.326;2024-01-10T00:10:07;-4.20;99.90
3268;DHT22;1646;52.450;13.326;2024-01-10T00:15:08;-4.40;99.90
3268;DHT22;1646;52.450;13.326;2024-01-10T00:20:07;-4.40;99.90
3268;DHT22;1646;52.450;13.326;2024-01-10T00:25:06;-4.40;99.90
3268;DHT22;1646;52.450;13.326;2024-01-10T00:30:08;-4.40;99.90
3268;DHT22;1646;52.450;13.326;2024-01-10T00:35:07;-4.40;99.90
3268;DHT22;1646;52.450;13.326;2024-01-10T00:40:06;-4.40;99.90
3268;DHT22;1646;52.450;13.326;2024-01-10T00:45:24;-4.40;99.90
3268;DHT22;1646;52.450;13.326;2024-01-10T00:50:22;-4.40;99.90
3268;DHT22;1646;52.450;13.326;2024-01-10T00:55:21;-4.40;99.90
3268;DHT22;1646;52.450;13.326;2024-01-10T01:00:19;-4.40;99.90
3268;DHT22;1646;52.450;13.326;2024-01-10T01:05:19;-4.40;99.90
3268;DHT22;1646;52.450;13.326;2024-01-10T01:10:17;-4.40;99.90
3268;DHT22;1646;52.450;13.326;2024-01-10T01:15:16;-4.40;99.90
3268;DHT22;1646;52.450;13.326;2024-01-10T01:20:14;-4.50;99.90
3268;DHT22;1646;52.450;13.326;2024-01-10T01:25:14;-4.50;99.90
3268;DHT22;1646;52.450;13.326;2024-01-10T01:30:12;-4.40;99.90
3268;DHT22;1646;52.450;13.326;2024-01-10T01:35:11;-4.50;99.90
3268;DHT22;1646;52.450;13.326;2024-01-10T01:40:10;-4.50;99.90
3268;DHT22;1646;52.450;13.326;2024-01-10T01:45:10;-4.50;99.90
3268;DHT22;1646;52.450;13.326;2024-01-10T01:50:08;-4.50;99.90
3268;DHT22;1646;52.450;13.326;2024-01-10T01:55:08;-4.50;99.90
3268;DHT22;1646;52.450;13.326;2024-01-10T02:00:07;-4.40;99.90
3268;DHT22;1646;52.450;13.326;2024-01-10T02:05:08;-4.40;99.90
3268;DHT22;1646;52.450;13.326;2024-01-10T02:10:07;-4.40;99.90
3268;DHT22;1646;52.450;13.326;2024-01-10T02:15:06;-4.50;99.90
3268;DHT22;1646;52.450;13.326;2024-01-10T02:20:09;-4.50;99.90
3268;DHT22;1646;52.450;13.326;2024-01-10T02:25:10;-4.50;99.90
3268;DHT22;1646;52.450;13.326;2024-01-10T02:30:09;-4.60;99.90
3268;DHT22;1646;52.450;13.326;2024-01-10T02:35:08;-4.60;99.90
3268;DHT22;1646;52.450;13.326;2024-01-10T02:40:09;-4.60;99.90
3268;DHT22;1646;52.450;13.326;2024-01-10T02:45:08;-4.60;99.90
3268;DHT22;1646;52.450;13.326;2024-01-10T02:50:07;-4.60;99.90
3268;DHT22;1646;52.450;13.326;2024-01-10T02:55:06;-4.60;99.90
3268;DHT22;1646;52.450;13.326;2024-01-10T03:00:07;-4.50;99.90
3268;DHT22;1646;52.450;13.326;2024-01-10T03:05:06;-4.50;99.90
3268;DHT22;1646;52.450;13.326;2024-01-10T03:10:05;-4.50;99.90
3268;DHT22;1646;52.450;13.326;2024-01-10T03:15:06;-4.50;99.90
3268;DHT22;1646;52.450;13.326;2024-01-10T03:20:06;-4.70;99.90
3268;DHT22;1646;52.450;13.326;2024-01-10T03:25:06;-4.70;99.90
3268;DHT22;1646;52.450;13.326;2024-01-10T03:30:07;-4.70;99.90
3268;DHT22;1646;52.450;13.326;2024-01-10T03:35:06;-4.70;99.90
3268;DHT22;1646;52.450;13.326;2024-01-10T03:40:06;-4.70;99.90
3268;DHT22;1646;52.450;13.326;2024-01-10T03:45:06;-4.70;99.90
3268;DHT22;1646;52.450;13.326;2024-01-10T03:50:05;-4.70;99.90
3268;DHT22;1646;52.450;13.326;2024-01-10T03:55:05;-4.80;99.90
3268;DHT22;1646;52.450;13.326;2024-01-10T04:00:06;-4.80;99.90
3268;DHT22;1646;52.450;13.326;2024-01-10T04:05:07;-4.80;99.90
3268;DHT22;1646;52.450;13.326;2024-01-10T04:10:07;-4.80;99.90
3268;DHT22;1646;52.450;13.326;2024-01-10T04:15:09;-4.90;99.90
3268;DHT22;1646;52.450;13.326;2024-01-10T04:20:08;-4.90;99.90
3268;DHT22;1646;52.450;13.326;2024-01-10T04:25:08;-4.80;99.90
3268;DHT22;1646;52.450;13.326;2024-01-10T04:30:08;-4.90;99.90
3268;DHT22;1646;52.450;13.326;2024-01-10T04:35:07;-4.80;99.90
3268;DHT22;1646;52.450;13.326;2024-01-10T04:40:07;-4.80;99.90
3268;DHT22;1646;52.450;13.326;2024-01-10T04:45:07;-4.90;99.90
3268;DHT22;1646;52.450;13.326;2024-01-10T04:50:06;-4.80;99.90
3268;DHT22;1646;52.450;13.326;2024-01-10T04:55:09;-4.90;99.90
3268;DHT22;1646;52.450;13.326;2024-01-10T05:00:10;-5.00;99.90
3268;DHT22;1646;52.450;13.326;2024-01-10T05:05:08;-5.00;99.90
3268;DHT22;1646;52.450;13.326;2024-01-10T05:10:07;-5.00;99.90
3268;DHT22;1646;52.450;13.326;2024-01-10T05:15:07;-4.90;99.90
3268;DHT22;1646;52.450;13.326;2024-01-10T05:20:08;-4.90;99.90
3268;DHT22;1646;52.450;13.326;2024-01-10T05:25:07;-4.80;99.90
3268;DHT22;1646;52.450;13.326;2024-01-10T05:30:06;-4.80;99.90
3268;DHT22;1646;52.450;13.326;2024-01-10T05:35:07;-4.90;99.90
3268;DHT22;1646;52.450;13.326;2024-01-10T05:40:08;-4.90;99.90
3268;DHT22;1646;52.450;13.326;2024-01-10T05:45:07;-4.80;99.90
3268;DHT22;1646;52.450;13.326;2024-01-10T05:50:08;-4.80;99.90
3268;DHT22;1646;52.450;13.326;2024-01-10T05:55:07;-4.80;99.90
3268;DHT22;1646;52.450;13.326;2024-01-10T06:00:06;-4.80;99.90
3268;DHT22;1646;52.450;13.326;2024-01-10T06:05:09;-4.80;99.90
3268;DHT22;1646;52.450;13.326;2024-01-10T06:10:08;-4.90;99.90
3268;DHT22;1646;52.450;13.326;2024-01-10T06:15:07;-4.90;99.90
3268;DHT22;1646;52.450;13.326;2024-01-10T06:20:09;-4.90;99.90
3268;DHT22;1646;52.450;13.326;2024-01-10T06:25:08;-4.90;99.90
3268;DHT22;1646;52.450;13.326;2024-01-10T06:30:07;-4.80;99.90
3268;DHT22;1646;52.450;13.326;2024-01-10T06:35:08;-4.90;99.90
3268;DHT22;1646;52.450;13.326;2024-01-10T06:40:08;-4.90;99.90
3268;DHT22;1646;52.450;13.326;2024-01-10T06:45:07;-5.00;99.90
3268;DHT22;1646;52.450;13.326;2024-01-10T06:50:08;-5.00;99.90
3268;DHT22;1646;52.450;13.326;2024-01-10T06:55:07;-4.90;99.90
3268;DHT22;1646;52.450;13.326;2024-01-10T07:00:07;-4.80;99.90
3268;DHT22;1646;52.450;13.326;2024-01-10T07:05:09;-4.80;99.90
3268;DHT22;1646;52.450;13.326;2024-01-10T07:10:09;-4.80;99.90
3268;DHT22;1646;52.450;13.326;2024-01-10T07:15:08;-4.60;99.90
3268;DHT22;1646;52.450;13.326;2024-01-10T07:20:08;-4.60;99.90
3268;DHT22;1646;52.450;13.326;2024-01-10T07:25:11;-4.70;99.90
3268;DHT22;1646;52.450;13.326;2024-01-10T07:30:12;-4.60;99.90
3268;DHT22;1646;52.450;13.326;2024-01-10T07:35:11;-4.60;99.90
3268;DHT22;1646;52.450;13.326;2024-01-10T07:40:12;-4.60;99.90
3268;DHT22;1646;52.450;13.326;2024-01-10T07:45:11;-4.70;99.90
3268;DHT22;1646;52.450;13.326;2024-01-10T07:50:10;-4.60;99.90
3268;DHT22;1646;52.450;13.326;2024-01-10T07:55:13;-4.60;99.90
3268;DHT22;1646;52.450;13.326;2024-01-10T08:00:11;-4.70;99.90
3268;DHT22;1646;52.450;13.326;2024-01-10T08:05:10;-4.80;99.90
3268;DHT22;1646;52.450;13.326;2024-01-10T08:10:10;-4.80;99.90
3268;DHT22;1646;52.450;13.326;2024-01-10T08:15:10;-4.60;99.90
3268;DHT22;1646;52.450;13.326;2024-01-10T08:20:09;-4.30;99.90
3268;DHT22;1646;52.450;13.326;2024-01-10T08:25:08;-4.10;99.90
3268;DHT22;1646;52.450;13.326;2024-01-10T08:30:08;-4.00;99.90
3268;DHT22;1646;52.450;13.326;2024-01-10T08:35:08;-3.60;99.90
3268;DHT22;1646;52.450;13.326;2024-01-10T08:40:08;-3.00;99.90
3268;DHT22;1646;52.450;13.326;2024-01-10T08:45:08;-2.70;99.90
3268;DHT22;1646;52.450;13.326;2024-01-10T08:50:10;-2.70;99.90
3268;DHT22;1646;52.450;13.326;2024-01-10T08:55:09;-2.80;99.90
3268;DHT22;1646;52.450;13.326;2024-01-10T09:00:11;-2.70;99.90
3268;DHT22;1646;52.450;13.326;2024-01-10T09:05:13;-2.50;99.90
3268;DHT22;1646;52.450;13.326;2024-01-10T09:10:12;-1.90;99.90
3268;DHT22;1646;52.450;13.326;2024-01-10T09:15:11;-1.20;99.90
3268;DHT22;1646;52.450;13.326;2024-01-10T09:20:13;-0.10;99.90
3268;DHT22;1646;52.450;13.326;2024-01-10T09:25:11;1.10;99.90
3268;DHT22;1646;52.450;13.326;2024-01-10T09:30:11;1.90;99.40
3268;DHT22;1646;52.450;13.326;2024-01-10T09:35:09;1.60;98.50
3268;DHT22;1646;52.450;13.326;2024-01-10T09:40:11;1.70;98.20
3268;DHT22;1646;52.450;13.326;2024-01-10T09:45:11;3.10;95.70
3268;DHT22;1646;52.450;13.326;2024-01-10T09:50:10;4.30;92.70
3268;DHT22;1646;52.450;13.326;2024-01-10T09:55:11;5.80;88.60
3268;DHT22;1646;52.450;13.326;2024-01-10T10:00:11;6.90;82.00
3268;DHT22;1646;52.450;13.326;2024-01-10T10:05:13;7.90;77.00
3268;DHT22;1646;52.450;13.326;2024-01-10T10:10:15;10.00;66.60
3268;DHT22;1646;52.450;13.326;2024-01-10T10:15:15;11.90;59.70
3268;DHT22;1646;52.450;13.326;2024-01-10T10:20:20;13.20;52.60
3268;DHT22;1646;52.450;13.326;2024-01-10T10:25:21;13.90;49.90
3268;DHT22;1646;52.450;13.326;2024-01-10T10:30:20;14.40;47.50
3268;DHT22;1646;52.450;13.326;2024-01-10T10:35:19;15.10;46.40
3268;DHT22;1646;52.450;13.326;2024-01-10T10:40:34;15.90;44.30
3268;DHT22;1646;52.450;13.326;2024-01-10T10:45:33;16.30;43.40
3268;DHT22;1646;52.450;13.326;2024-01-10T10:50:34;15.60;41.60
3268;DHT22;1646;52.450;13.326;2024-01-10T10:55:36;14.00;41.80
3268;DHT22;1646;52.450;13.326;2024-01-10T11:00:35;11.20;40.30
3268;DHT22;1646;52.450;13.326;2024-01-10T11:05:35;9.60;46.40
3268;DHT22;1646;52.450;13.326;2024-01-10T11:10:37;8.60;47.50
3268;DHT22;1646;52.450;13.326;2024-01-10T11:15:54;8.50;47.50
3268;DHT22;1646;52.450;13.326;2024-01-10T11:21:09;7.70;47.00
3268;DHT22;1646;52.450;13.326;2024-01-10T11:26:14;6.30;47.20
3268;DHT22;1646;52.450;13.326;2024-01-10T11:31:14;5.70;49.20
3268;DHT22;1646;52.450;13.326;2024-01-10T11:36:14;6.10;50.30
3268;DHT22;1646;52.450;13.326;2024-01-10T11:41:20;7.60;50.20
3268;DHT22;1646;52.450;13.326;2024-01-10T11:46:19;9.80;47.70
3268;DHT22;1646;52.450;13.326;2024-01-10T11:51:20;10.60;46.50
3268;DHT22;1646;52.450;13.326;2024-01-10T11:56:20;11.30;46.70
3268;DHT22;1646;52.450;13.326;2024-01-10T12:01:29;12.30;45.20
3268;DHT22;1646;52.450;13.326;2024-01-10T12:06:28;11.50;44.10
3268;DHT22;1646;52.450;13.326;2024-01-10T12:11:28;10.70;44.30
3268;DHT22;1646;52.450;13.326;2024-01-10T12:16:27;11.40;45.00
3268;DHT22;1646;52.450;13.326;2024-01-10T12:21:26;10.70;45.40
3268;DHT22;1646;52.450;13.326;2024-01-10T12:26:24;9.50;45.30
3268;DHT22;1646;52.450;13.326;2024-01-10T12:31:25;8.90;46.10
3268;DHT22;1646;52.450;13.326;2024-01-10T12:36:25;9.00;47.50
3268;DHT22;1646;52.450;13.326;2024-01-10T12:41:24;9.70;46.50
3268;DHT22;1646;52.450;13.326;2024-01-10T12:46:24;10.90;45.90
3268;DHT22;1646;52.450;13.326;2024-01-10T12:51:22;13.40;44.90
3268;DHT22;1646;52.450;13.326;2024-01-10T12:56:21;16.00;44.80
3268;DHT22;1646;52.450;13.326;2024-01-10T13:01:20;18.00;43.10
3268;DHT22;1646;52.450;13.326;2024-01-10T13:06:19;19.40;43.40
3268;DHT22;1646;52.450;13.326;2024-01-10T13:11:19;20.20;41.80
3268;DHT22;1646;52.450;13.326;2024-01-10T13:16:18;20.60;41.50
3268;DHT22;1646;52.450;13.326;2024-01-10T13:21:16;20.40;39.60
3268;DHT22;1646;52.450;13.326;2024-01-10T13:26:16;19.30;40.10
3268;DHT22;1646;52.450;13.326;2024-01-10T13:31:14;16.00;38.90
3268;DHT22;1646;52.450;13.326;2024-01-10T13:36:13;13.20;38.10
3268;DHT22;1646;52.450;13.326;2024-01-10T13:41:11;12.00;38.40
3268;DHT22;1646;52.450;13.326;2024-01-10T13:46:11;10.00;38.10
3268;DHT22;1646;52.450;13.326;2024-01-10T13:51:09;7.70;40.00
3268;DHT22;1646;52.450;13.326;2024-01-10T13:56:08;6.10;40.80
3268;DHT22;1646;52.450;13.326;2024-01-10T14:01:07;4.90;41.70
3268;DHT22;1646;52.450;13.326;2024-01-10T14:06:07;4.10;42.20
3268;DHT22;1646;52.450;13.326;2024-01-10T14:11:05;3.50;42.70
3268;DHT22;1646;52.450;13.326;2024-01-10T14:16:04;3.00;43.10
3268;DHT22;1646;52.450;13.326;2024-01-10T14:21:04;2.70;43.90
3268;DHT22;1646;52.450;13.326;2024-01-10T14:26:04;2.40;44.10
3268;DHT22;1646;52.450;13.326;2024-01-10T14:31:03;2.30;44.80
3268;DHT22;1646;52.450;13.326;2024-01-10T14:36:18;2.20;45.10
3268;DHT22;1646;52.450;13.326;2024-01-10T14:41:18;2.00;46.10
3268;DHT22;1646;52.450;13.326;2024-01-10T14:46:16;1.90;47.00
3268;DHT22;1646;52.450;13.326;2024-01-10T14:51:14;1.70;46.30
3268;DHT22;1646;52.450;13.326;2024-01-10T14:56:14;1.60;47.30
3268;DHT22;1646;52.450;13.326;2024-01-10T15:01:13;1.60;47.30
3268;DHT22;1646;52.450;13.326;2024-01-10T15:06:12;1.50;47.20
3268;DHT22;1646;52.450;13.326;2024-01-10T15:11:10;1.50;47.20
3268;DHT22;1646;52.450;13.326;2024-01-10T15:16:09;1.40;47.80
3268;DHT22;1646;52.450;13.326;2024-01-10T15:21:08;1.50;47.40
3268;DHT22;1646;52.450;13.326;2024-01-10T15:26:07;1.30;47.60
3268;DHT22;1646;52.450;13.326;2024-01-10T15:31:06;1.30;48.20
3268;DHT22;1646;52.450;13.326;2024-01-10T15:36:04;1.20;47.80
3268;DHT22;1646;52.450;13.326;2024-01-10T15:41:06;1.10;48.00
3268;DHT22;1646;52.450;13.326;2024-01-10T15:46:05;1.00;48.20
3268;DHT22;1646;52.450;13.326;2024-01-10T15:51:05;0.90;48.30
3268;DHT22;1646;52.450;13.326;2024-01-10T15:56:04;0.90;48.60
3268;DHT22;1646;52.450;13.326;2024-01-10T16:01:05;0.80;49.40
3268;DHT22;1646;52.450;13.326;2024-01-10T16:06:04;0.80;48.90
3268;DHT22;1646;52.450;13.326;2024-01-10T16:11:08;0.70;49.30
3268;DHT22;1646;52.450;13.326;2024-01-10T16:16:07;0.60;49.50
3268;DHT22;1646;52.450;13.326;2024-01-10T16:21:06;0.60;50.30
3268;DHT22;1646;52.450;13.326;2024-01-10T16:26:04;0.60;50.00
3268;DHT22;1646;52.450;13.326;2024-01-10T16:31:05;0.50;50.50
3268;DHT22;1646;52.450;13.326;2024-01-10T16:36:04;0.40;50.50
3268;DHT22;1646;52.450;13.326;2024-01-10T16:41:02;0.40;50.50
3268;DHT22;1646;52.450;13.326;2024-01-10T16:46:01;0.40;50.90
3268;DHT22;1646;52.450;13.326;2024-01-10T16:51:01;0.30;51.50
3268;DHT22;1646;52.450;13.326;2024-01-10T16:56:00;0.30;51.80
3268;DHT22;1646;52.450;13.326;2024-01-10T17:00:58;0.20;51.40
3268;DHT22;1646;52.450;13.326;2024-01-10T17:05:57;0.10;51.50
3268;DHT22;1646;52.450;13.326;2024-01-10T17:10:57;0.00;53.50
3268;DHT22;1646;52.450;13.326;2024-01-10T17:15:56;-0.10;54.70
3268;DHT22;1646;52.450;13.326;2024-01-10T17:20:54;-0.10;53.80
3268;DHT22;1646;52.450;13.326;2024-01-10T17:25:53;-0.10;53.60
3268;DHT22;1646;52.450;13.326;2024-01-10T17:30:53;-0.10;54.10
3268;DHT22;1646;52.450;13.326;2024-01-10T17:35:51;-0.20;54.90
3268;DHT22;1646;52.450;13.326;2024-01-10T17:40:50;-0.20;54.50
3268;DHT22;1646;52.450;13.326;2024-01-10T17:45:50;-0.20;54.70
3268;DHT22;1646;52.450;13.326;2024-01-10T17:50:52;-0.20;54.70
3268;DHT22;1646;52.450;13.326;2024-01-10T17:55:51;-0.30;56.60
3268;DHT22;1646;52.450;13.326;2024-01-10T18:00:49;-0.30;56.80
3268;DHT22;1646;52.450;13.326;2024-01-10T18:05:56;-0.40;56.30
3268;DHT22;1646;52.450;13.326;2024-01-10T18:10:57;-0.40;57.40
3268;DHT22;1646;52.450;13.326;2024-01-10T18:15:57;-0.50;57.50
3268;DHT22;1646;52.450;13.326;2024-01-10T18:20:58;-0.50;58.40
3268;DHT22;1646;52.450;13.326;2024-01-10T18:25:56;-0.50;58.20
3268;DHT22;1646;52.450;13.326;2024-01-10T18:30:54;-0.50;58.10
3268;DHT22;1646;52.450;13.326;2024-01-10T18:35:53;-0.60;57.80
3268;DHT22;1646;52.450;13.326;2024-01-10T18:40:52;-0.50;57.90
3268;DHT22;1646;52.450;13.326;2024-01-10T18:45:53;-0.70;57.90
3268;DHT22;1646;52.450;13.326;2024-01-10T18:50:51;-0.70;58.20
3268;DHT22;1646;52.450;13.326;2024-01-10T18:55:50;-0.90;60.10
3268;DHT22;1646;52.450;13.326;2024-01-10T19:00:52;-0.80;61.10
3268;DHT22;1646;52.450;13.326;2024-01-10T19:05:51;-0.90;61.10
3268;DHT22;1646;52.450;13.326;2024-01-10T19:10:50;-0.90;61.20
3268;DHT22;1646;52.450;13.326;2024-01-10T19:15:48;-0.90;61.10
3268;DHT22;1646;52.450;13.326;2024-01-10T19:20:48;-0.90;62.90
3268;DHT22;1646;52.450;13.326;2024-01-10T19:25:46;-1.00;61.80
3268;DHT22;1646;52.450;13.326;2024-01-10T19:30:45;-1.00;64.50
3268;DHT22;1646;52.450;13.326;2024-01-10T19:35:43;-1.10;68.20
3268;DHT22;1646;52.450;13.326;2024-01-10T19:40:43;-1.20;67.90
3268;DHT22;1646;52.450;13.326;2024-01-10T19:45:41;-1.20;67.80
3268;DHT22;1646;52.450;13.326;2024-01-10T19:50:40;-1.20;67.60
3268;DHT22;1646;52.450;13.326;2024-01-10T19:55:38;-1.20;67.80
3268;DHT22;1646;52.450;13.326;2024-01-10T20:00:38;-1.20;67.10
3268;DHT22;1646;52.450;13.326;2024-01-10T20:05:37;-1.20;67.80
3268;DHT22;1646;52.450;13.326;2024-01-10T20:10:37;-1.20;68.30
3268;DHT22;1646;52.450;13.326;2024-01-10T20:15:35;-1.30;69.90
3268;DHT22;1646;52.450;13.326;2024-01-10T20:20:35;-1.40;72.60
3268;DHT22;1646;52.450;13.326;2024-01-10T20:25:34;-1.40;72.90
3268;DHT22;1646;52.450;13.326;2024-01-10T20:30:33;-1.50;72.50
3268;DHT22;1646;52.450;13.326;2024-01-10T20:35:32;-1.50;78.00
3268;DHT22;1646;52.450;13.326;2024-01-10T20:40:32;-1.60;77.50
3268;DHT22;1646;52.450;13.326;2024-01-10T20:45:30;-1.60;78.50
3268;DHT22;1646;52.450;13.326;2024-01-10T20:50:28;-1.70;80.10
3268;DHT22;1646;52.450;13.326;2024-01-10T20:55:27;-1.70;78.40
3268;DHT22;1646;52.450;13.326;2024-01-10T21:00:27;-1.70;78.00
3268;DHT22;1646;52.450;13.326;2024-01-10T21:05:25;-1.80;87.50
3268;DHT22;1646;52.450;13.326;2024-01-10T21:10:24;-1.80;83.00
3268;DHT22;1646;52.450;13.326;2024-01-10T21:15:22;-1.80;82.00
3268;DHT22;1646;52.450;13.326;2024-01-10T21:20:22;-1.90;88.50
3268;DHT22;1646;52.450;13.326;2024-01-10T21:25:20;-1.90;85.80
3268;DHT22;1646;52.450;13.326;2024-01-10T21:30:18;-1.90;84.80
3268;DHT22;1646;52.450;13.326;2024-01-10T21:35:17;-1.90;87.70
3268;DHT22;1646;52.450;13.326;2024-01-10T21:40:16;-1.90;85.40
3268;DHT22;1646;52.450;13.326;2024-01-10T21:45:15;-1.90;88.70
3268;DHT22;1646;52.450;13.326;2024-01-10T21:50:13;-1.90;87.90
3268;DHT22;1646;52.450;13.326;2024-01-10T21:55:12;-1.90;89.70
3268;DHT22;1646;52.450;13.326;2024-01-10T22:00:13;-1.90;90.10
3268;DHT22;1646;52.450;13.326;2024-01-10T22:05:11;-2.00;88.50
3268;DHT22;1646;52.450;13.326;2024-01-10T22:10:10;-2.00;88.20
3268;DHT22;1646;52.450;13.326;2024-01-10T22:15:09;-2.00;89.20
3268;DHT22;1646;52.450;13.326;2024-01-10T22:20:09;-2.00;89.30
3268;DHT22;1646;52.450;13.326;2024-01-10T22:25:09;-2.00;90.10
3268;DHT22;1646;52.450;13.326;2024-01-10T22:30:08;-2.10;92.50
3268;DHT22;1646;52.450;13.326;2024-01-10T22:35:09;-2.10;91.10
3268;DHT22;1646;52.450;13.326;2024-01-10T22:40:08;-2.10;92.70
3268;DHT22;1646;52.450;13.326;2024-01-10T22:45:08;-2.20;92.70
3268;DHT22;1646;52.450;13.326;2024-01-10T22:50:08;-2.20;92.80
3268;DHT22;1646;52.450;13.326;2024-01-10T22:55:07;-2.20;92.20
3268;DHT22;1646;52.450;13.326;2024-01-10T23:00:07;-2.20;93.60
3268;DHT22;1646;52.450;13.326;2024-01-10T23:05:09;-2.20;93.00
3268;DHT22;1646;52.450;13.326;2024-01-10T23:10:08;-2.20;93.20
3268;DHT22;1646;52.450;13.326;2024-01-10T23:15:09;-2.20;94.70
3268;DHT22;1646;52.450;13.326;2024-01-10T23:20:09;-2.20;94.60
3268;DHT22;1646;52.450;13.326;2024-01-10T23:25:10;-2.10;95.70
3268;DHT22;1646;52.450;13.326;2024-01-10T23:30:08;-2.10;95.10
3268;DHT22;1646;52.450;13.326;2024-01-10T23:35:12;-2.00;96.90
3268;DHT22;1646;52.450;13.326;2024-01-10T23:40:11;-2.20;99.90
3268;DHT22;1646;52.450;13.326;2024-01-10T23:45:10;-2.30;99.90
3268;DHT22;1646;52.450;13.326;2024-01-10T23:50:09;-2.40;99.90
3268;DHT22;1646;52.450;13.326;2024-01-10T23:55:08;-2.60;99.90
